createdAt,value
2017-08-26T00:00:19.693Z,17.65
2017-08-26T00:01:00.265Z,17.7
2017-08-26T00:01:40.828Z,17.67
2017-08-26T00:02:21.425Z,17.63
2017-08-26T00:03:01.999Z,17.72
2017-08-26T00:03:42.571Z,17.7
2017-08-26T00:04:23.145Z,17.6
2017-08-26T00:05:03.721Z,17.52
2017-08-26T00:05:44.303Z,17.65
2017-08-26T00:06:24.877Z,17.65
2017-08-26T00:07:05.459Z,17.56
2017-08-26T00:07:46.041Z,17.57
2017-08-26T00:08:26.620Z,17.56
2017-08-26T00:09:07.179Z,17.56
2017-08-26T00:09:47.763Z,17.57
2017-08-26T00:10:28.327Z,17.57
2017-08-26T00:11:08.902Z,17.59
2017-08-26T00:11:49.461Z,17.65
2017-08-26T00:12:30.048Z,17.65
2017-08-26T00:13:10.619Z,17.59
2017-08-26T00:13:51.256Z,17.64
2017-08-26T00:14:31.818Z,17.67
2017-08-26T00:15:12.388Z,17.48
2017-08-26T00:15:52.965Z,17.64
2017-08-26T00:16:33.540Z,17.42
2017-08-26T00:17:14.105Z,17.57
2017-08-26T00:17:54.703Z,17.54
2017-08-26T00:18:35.288Z,17.46
2017-08-26T00:19:15.856Z,17.49
2017-08-26T00:19:56.427Z,17.45
2017-08-26T00:20:37.001Z,17.44
2017-08-26T00:21:17.574Z,17.52
2017-08-26T00:21:58.150Z,17.48
2017-08-26T00:22:38.743Z,17.46
2017-08-26T00:23:19.349Z,17.48
2017-08-26T00:23:59.918Z,17.42
2017-08-26T00:24:40.501Z,17.52
2017-08-26T00:25:21.057Z,17.46
2017-08-26T00:26:01.630Z,17.44
2017-08-26T00:26:42.197Z,17.39
2017-08-26T00:27:22.777Z,17.45
2017-08-26T00:28:03.340Z,17.48
2017-08-26T00:28:43.906Z,17.42
2017-08-26T00:29:24.474Z,17.46
2017-08-26T00:30:05.037Z,17.38
2017-08-26T00:30:45.601Z,17.34
2017-08-26T00:31:26.187Z,17.38
2017-08-26T00:32:06.776Z,17.36
2017-08-26T00:32:47.376Z,17.3
2017-08-26T00:33:27.948Z,17.34
2017-08-26T00:34:08.519Z,17.36
2017-08-26T00:34:49.089Z,17.3
2017-08-26T00:35:29.653Z,17.33
2017-08-26T00:36:10.243Z,17.31
2017-08-26T00:36:50.825Z,17.33
2017-08-26T00:37:31.397Z,17.33
2017-08-26T00:38:11.965Z,17.41
2017-08-26T00:38:52.547Z,17.33
2017-08-26T00:39:33.145Z,17.39
2017-08-26T00:40:13.715Z,17.39
2017-08-26T00:40:54.278Z,17.36
2017-08-26T00:41:34.844Z,17.33
2017-08-26T00:42:15.421Z,17.31
2017-08-26T00:42:56.008Z,17.24
2017-08-26T00:43:36.574Z,17.33
2017-08-26T00:44:17.144Z,17.24
2017-08-26T00:44:57.717Z,17.27
2017-08-26T00:45:38.287Z,17.22
2017-08-26T00:46:18.865Z,17.22
2017-08-26T00:46:59.428Z,17.27
2017-08-26T00:47:40.001Z,17.16
2017-08-26T00:48:20.574Z,17.14
2017-08-26T00:49:01.155Z,17.27
2017-08-26T00:49:41.719Z,17.23
2017-08-26T00:50:22.285Z,17.19
2017-08-26T00:51:02.856Z,17.22
2017-08-26T00:51:43.427Z,17.19
2017-08-26T00:52:24.000Z,17.2
2017-08-26T00:53:04.584Z,17.16
2017-08-26T00:53:45.167Z,17.2
2017-08-26T00:54:25.749Z,17.19
2017-08-26T00:55:06.311Z,17.23
2017-08-26T00:55:46.880Z,17.22
2017-08-26T00:56:27.441Z,17.24
2017-08-26T00:57:08.002Z,17.24
2017-08-26T00:57:48.563Z,17.22
2017-08-26T00:58:29.142Z,17.22
2017-08-26T00:59:09.746Z,17.19
2017-08-26T00:59:50.302Z,17.24
2017-08-26T01:00:30.870Z,17.2
2017-08-26T01:01:11.443Z,17.19
2017-08-26T01:01:52.014Z,17.22
2017-08-26T01:02:32.584Z,17.26
2017-08-26T01:03:13.162Z,17.19
2017-08-26T01:03:53.723Z,17.2
2017-08-26T01:04:34.278Z,17.27
2017-08-26T01:05:14.839Z,17.27
2017-08-26T01:05:55.416Z,17.2
2017-08-26T01:06:35.982Z,17.27
2017-08-26T01:07:16.542Z,17.22
2017-08-26T01:07:57.127Z,17.22
2017-08-26T01:08:37.716Z,17.27
2017-08-26T01:09:18.293Z,17.15
2017-08-26T01:09:58.866Z,17.22
2017-08-26T01:10:39.448Z,17.11
2017-08-26T01:11:20.029Z,17.12
2017-08-26T01:12:00.611Z,17.11
2017-08-26T01:12:41.194Z,17.12
2017-08-26T01:13:21.785Z,17.19
2017-08-26T01:14:02.364Z,17.06
2017-08-26T01:14:42.926Z,17.11
2017-08-26T01:15:23.513Z,17.12
2017-08-26T01:16:04.093Z,17.14
2017-08-26T01:16:44.660Z,17.09
2017-08-26T01:17:25.236Z,17.06
2017-08-26T01:18:05.824Z,17.19
2017-08-26T01:18:46.408Z,17.09
2017-08-26T01:19:26.978Z,17.16
2017-08-26T01:20:07.549Z,17.05
2017-08-26T01:20:48.165Z,17.06
2017-08-26T01:21:28.751Z,17.2
2017-08-26T01:22:09.368Z,17.14
2017-08-26T01:22:49.940Z,17.06
2017-08-26T01:23:30.510Z,17.09
2017-08-26T01:24:11.130Z,17.04
2017-08-26T01:24:51.698Z,17.05
2017-08-26T01:25:32.278Z,17.05
2017-08-26T01:26:12.863Z,16.99
2017-08-26T01:26:53.497Z,17.06
2017-08-26T01:27:34.084Z,16.99
2017-08-26T01:28:14.657Z,17.02
2017-08-26T01:28:55.236Z,17.01
2017-08-26T01:29:35.803Z,17.02
2017-08-26T01:30:16.392Z,17.01
2017-08-26T01:30:56.980Z,16.97
2017-08-26T01:31:37.590Z,17.05
2017-08-26T01:32:18.155Z,17.05
2017-08-26T01:32:58.716Z,16.94
2017-08-26T01:33:39.282Z,16.99
2017-08-26T01:34:19.845Z,16.96
2017-08-26T01:35:00.411Z,16.93
2017-08-26T01:35:41.009Z,16.93
2017-08-26T01:36:21.565Z,16.96
2017-08-26T01:37:02.125Z,16.93
2017-08-26T01:37:42.727Z,16.93
2017-08-26T01:38:23.293Z,16.91
2017-08-26T01:39:03.866Z,16.86
2017-08-26T01:39:44.435Z,16.9
2017-08-26T01:40:24.999Z,16.94
2017-08-26T01:41:05.570Z,16.96
2017-08-26T01:41:46.148Z,16.9
2017-08-26T01:42:26.731Z,16.79
2017-08-26T01:43:07.294Z,16.86
2017-08-26T01:43:47.851Z,16.93
2017-08-26T01:44:28.438Z,16.89
2017-08-26T01:45:09.011Z,16.84
2017-08-26T01:45:49.585Z,16.79
2017-08-26T01:46:30.170Z,16.83
2017-08-26T01:47:10.766Z,16.86
2017-08-26T01:47:51.344Z,16.87
2017-08-26T01:48:31.929Z,16.83
2017-08-26T01:49:12.514Z,16.84
2017-08-26T01:49:53.094Z,16.79
2017-08-26T01:50:33.666Z,16.9
2017-08-26T01:51:14.240Z,16.84
2017-08-26T01:51:54.837Z,16.81
2017-08-26T01:52:35.402Z,16.81
2017-08-26T01:53:15.991Z,16.83
2017-08-26T01:53:56.578Z,16.83
2017-08-26T01:54:37.161Z,16.84
2017-08-26T01:55:17.741Z,16.78
2017-08-26T01:55:58.298Z,16.76
2017-08-26T01:56:38.872Z,16.79
2017-08-26T01:57:19.438Z,16.75
2017-08-26T01:58:00.016Z,16.76
2017-08-26T01:58:40.597Z,16.78
2017-08-26T01:59:21.166Z,16.75
2017-08-26T02:00:01.743Z,16.81
2017-08-26T02:00:42.324Z,16.75
2017-08-26T02:01:22.882Z,16.79
2017-08-26T02:02:03.460Z,16.79
2017-08-26T02:02:44.023Z,16.81
2017-08-26T02:03:24.591Z,16.79
2017-08-26T02:04:05.171Z,16.76
2017-08-26T02:04:45.781Z,16.81
2017-08-26T02:05:26.356Z,16.74
2017-08-26T02:06:06.926Z,16.79
2017-08-26T02:06:47.495Z,16.76
2017-08-26T02:07:28.056Z,16.76
2017-08-26T02:08:08.642Z,16.76
2017-08-26T02:08:49.207Z,16.72
2017-08-26T02:09:29.782Z,16.71
2017-08-26T02:10:10.353Z,16.71
2017-08-26T02:10:50.925Z,16.69
2017-08-26T02:11:31.531Z,16.72
2017-08-26T02:12:12.127Z,16.65
2017-08-26T02:12:52.715Z,16.71
2017-08-26T02:13:33.288Z,16.76
2017-08-26T02:14:13.882Z,16.61
2017-08-26T02:14:54.462Z,16.81
2017-08-26T02:15:35.039Z,16.69
2017-08-26T02:16:15.638Z,16.71
2017-08-26T02:16:56.206Z,16.65
2017-08-26T02:17:36.792Z,16.69
2017-08-26T02:18:17.339Z,16.66
2017-08-26T02:18:57.921Z,16.78
2017-08-26T02:19:38.538Z,16.74
2017-08-26T02:20:19.101Z,16.68
2017-08-26T02:20:59.669Z,16.79
2017-08-26T02:21:40.251Z,16.78
2017-08-26T02:22:20.823Z,16.74
2017-08-26T02:23:01.400Z,16.69
2017-08-26T02:23:41.976Z,16.65
2017-08-26T02:24:22.565Z,16.65
2017-08-26T02:25:03.142Z,16.71
2017-08-26T02:25:43.713Z,16.68
2017-08-26T02:26:24.319Z,16.54
2017-08-26T02:27:04.898Z,16.71
2017-08-26T02:27:45.483Z,16.66
2017-08-26T02:28:26.053Z,16.66
2017-08-26T02:29:06.637Z,16.66
2017-08-26T02:29:47.216Z,16.69
2017-08-26T02:30:27.811Z,16.6
2017-08-26T02:31:08.378Z,16.61
2017-08-26T02:31:48.966Z,16.6
2017-08-26T02:32:29.562Z,16.61
2017-08-26T02:33:10.131Z,16.57
2017-08-26T02:33:50.709Z,16.61
2017-08-26T02:34:31.277Z,16.6
2017-08-26T02:35:11.865Z,16.64
2017-08-26T02:35:52.430Z,16.61
2017-08-26T02:36:33.003Z,16.65
2017-08-26T02:37:13.605Z,16.69
2017-08-26T02:37:54.153Z,16.68
2017-08-26T02:38:34.736Z,16.71
2017-08-26T02:39:15.317Z,16.64
2017-08-26T02:39:55.921Z,16.66
2017-08-26T02:40:36.494Z,16.61
2017-08-26T02:41:17.058Z,16.61
2017-08-26T02:41:57.659Z,16.65
2017-08-26T02:42:38.246Z,16.57
2017-08-26T02:43:18.816Z,16.6
2017-08-26T02:43:59.410Z,16.64
2017-08-26T02:44:39.981Z,16.6
2017-08-26T02:45:20.559Z,16.61
2017-08-26T02:46:01.127Z,16.61
2017-08-26T02:46:41.705Z,16.6
2017-08-26T02:47:22.266Z,16.57
2017-08-26T02:48:02.838Z,16.57
2017-08-26T02:48:43.429Z,16.6
2017-08-26T02:49:23.997Z,16.66
2017-08-26T02:50:04.563Z,16.65
2017-08-26T02:50:45.130Z,16.6
2017-08-26T02:51:25.718Z,16.68
2017-08-26T02:52:06.282Z,16.61
2017-08-26T02:52:46.851Z,16.61
2017-08-26T02:53:27.441Z,16.64
2017-08-26T02:54:08.024Z,16.61
2017-08-26T02:54:48.608Z,16.58
2017-08-26T02:55:29.177Z,16.61
2017-08-26T02:56:09.751Z,16.61
2017-08-26T02:56:50.307Z,16.65
2017-08-26T02:57:30.881Z,16.61
2017-08-26T02:58:11.445Z,16.61
2017-08-26T02:58:52.011Z,16.57
2017-08-26T02:59:32.599Z,16.53
2017-08-26T03:00:13.163Z,16.56
2017-08-26T03:00:53.741Z,16.57
2017-08-26T03:01:34.310Z,16.56
2017-08-26T03:02:14.886Z,16.54
2017-08-26T03:02:55.457Z,16.54
2017-08-26T03:03:36.032Z,16.49
2017-08-26T03:04:16.596Z,16.57
2017-08-26T03:04:57.163Z,16.57
2017-08-26T03:05:37.740Z,16.58
2017-08-26T03:06:18.326Z,16.56
2017-08-26T03:06:58.893Z,16.57
2017-08-26T03:07:39.472Z,16.57
2017-08-26T03:08:20.044Z,16.57
2017-08-26T03:09:00.614Z,16.54
2017-08-26T03:09:41.202Z,16.56
2017-08-26T03:10:21.801Z,16.56
2017-08-26T03:11:02.387Z,16.58
2017-08-26T03:11:42.954Z,16.56
2017-08-26T03:12:23.575Z,16.53
2017-08-26T03:13:04.139Z,16.54
2017-08-26T03:13:44.699Z,16.57
2017-08-26T03:14:25.278Z,16.54
2017-08-26T03:15:05.871Z,16.58
2017-08-26T03:15:46.453Z,16.58
2017-08-26T03:16:27.048Z,16.53
2017-08-26T03:17:07.611Z,16.54
2017-08-26T03:17:48.195Z,16.58
2017-08-26T03:18:28.766Z,16.51
2017-08-26T03:19:09.341Z,16.51
2017-08-26T03:19:49.895Z,16.53
2017-08-26T03:20:30.462Z,16.54
2017-08-26T03:21:11.028Z,16.54
2017-08-26T03:21:51.603Z,16.51
2017-08-26T03:22:32.170Z,16.5
2017-08-26T03:23:12.745Z,16.43
2017-08-26T03:23:53.322Z,16.5
2017-08-26T03:24:33.874Z,16.58
2017-08-26T03:25:14.448Z,16.5
2017-08-26T03:25:55.023Z,16.56
2017-08-26T03:26:35.582Z,16.54
2017-08-26T03:27:16.150Z,16.47
2017-08-26T03:27:56.721Z,16.5
2017-08-26T03:28:37.334Z,16.5
2017-08-26T03:29:17.954Z,16.47
2017-08-26T03:29:58.478Z,16.5
2017-08-26T03:30:39.045Z,16.46
2017-08-26T03:31:19.617Z,16.49
2017-08-26T03:32:00.197Z,16.43
2017-08-26T03:32:40.761Z,16.51
2017-08-26T03:33:21.329Z,16.39
2017-08-26T03:34:01.903Z,16.41
2017-08-26T03:34:42.474Z,16.43
2017-08-26T03:35:23.048Z,16.31
2017-08-26T03:36:03.620Z,16.42
2017-08-26T03:36:44.183Z,16.35
2017-08-26T03:37:24.758Z,16.35
2017-08-26T03:38:05.331Z,16.43
2017-08-26T03:38:45.891Z,16.36
2017-08-26T03:39:26.452Z,16.49
2017-08-26T03:40:07.019Z,16.33
2017-08-26T03:40:47.590Z,16.33
2017-08-26T03:41:28.156Z,16.31
2017-08-26T03:42:08.737Z,16.33
2017-08-26T03:42:49.299Z,16.33
2017-08-26T03:43:29.880Z,16.33
2017-08-26T03:44:10.455Z,16.41
2017-08-26T03:44:51.029Z,16.35
2017-08-26T03:45:31.595Z,16.35
2017-08-26T03:46:12.153Z,16.35
2017-08-26T03:46:52.754Z,16.39
2017-08-26T03:47:33.335Z,16.33
2017-08-26T03:48:13.904Z,16.42
2017-08-26T03:48:54.482Z,16.36
2017-08-26T03:49:35.042Z,16.38
2017-08-26T03:50:15.618Z,16.36
2017-08-26T03:50:56.203Z,16.42
2017-08-26T03:51:36.770Z,16.36
2017-08-26T03:52:17.338Z,16.41
2017-08-26T03:52:57.907Z,16.38
2017-08-26T03:53:38.503Z,16.39
2017-08-26T03:54:19.066Z,16.36
2017-08-26T03:54:59.644Z,16.36
2017-08-26T03:55:40.212Z,16.39
2017-08-26T03:56:20.787Z,16.35
2017-08-26T03:57:01.360Z,16.38
2017-08-26T03:57:41.940Z,16.35
2017-08-26T03:58:22.519Z,16.33
2017-08-26T03:59:03.086Z,16.33
2017-08-26T03:59:43.661Z,16.35
2017-08-26T04:00:24.223Z,16.36
2017-08-26T04:01:04.796Z,16.36
2017-08-26T04:01:45.372Z,16.35
2017-08-26T04:02:25.939Z,16.33
2017-08-26T04:03:06.501Z,16.42
2017-08-26T04:03:47.069Z,16.32
2017-08-26T04:04:27.634Z,16.35
2017-08-26T04:05:08.207Z,16.36
2017-08-26T04:05:48.779Z,16.36
2017-08-26T04:06:29.363Z,16.35
2017-08-26T04:07:09.924Z,16.35
2017-08-26T04:07:50.493Z,16.38
2017-08-26T04:08:31.074Z,16.35
2017-08-26T04:09:11.648Z,16.32
2017-08-26T04:09:52.236Z,16.39
2017-08-26T04:10:32.793Z,16.32
2017-08-26T04:11:13.369Z,16.41
2017-08-26T04:11:53.941Z,16.36
2017-08-26T04:12:34.537Z,16.41
2017-08-26T04:13:15.082Z,16.36
2017-08-26T04:13:55.651Z,16.38
2017-08-26T04:14:36.234Z,16.35
2017-08-26T04:15:16.825Z,16.32
2017-08-26T04:15:57.393Z,16.33
2017-08-26T04:16:37.984Z,16.32
2017-08-26T04:17:18.561Z,16.33
2017-08-26T04:17:59.127Z,16.33
2017-08-26T04:18:39.723Z,16.29
2017-08-26T04:19:20.291Z,16.33
2017-08-26T04:20:00.907Z,16.32
2017-08-26T04:20:41.482Z,16.26
2017-08-26T04:21:22.050Z,16.32
2017-08-26T04:22:02.660Z,16.26
2017-08-26T04:22:43.218Z,16.32
2017-08-26T04:23:23.788Z,16.33
2017-08-26T04:24:04.355Z,16.38
2017-08-26T04:24:44.928Z,16.29
2017-08-26T04:25:25.503Z,16.33
2017-08-26T04:26:06.060Z,16.32
2017-08-26T04:26:46.631Z,16.35
2017-08-26T04:27:27.206Z,16.35
2017-08-26T04:28:07.784Z,16.31
2017-08-26T04:28:48.353Z,16.35
2017-08-26T04:29:28.924Z,16.31
2017-08-26T04:30:09.493Z,16.42
2017-08-26T04:30:50.110Z,16.36
2017-08-26T04:31:30.690Z,16.39
2017-08-26T04:32:11.235Z,16.42
2017-08-26T04:32:51.820Z,16.43
2017-08-26T04:33:32.412Z,16.36
2017-08-26T04:34:13.001Z,16.38
2017-08-26T04:34:53.571Z,16.38
2017-08-26T04:35:34.162Z,16.42
2017-08-26T04:36:14.718Z,16.41
2017-08-26T04:36:55.285Z,16.46
2017-08-26T04:37:35.863Z,16.38
2017-08-26T04:38:16.446Z,16.42
2017-08-26T04:38:57.059Z,16.46
2017-08-26T04:39:37.641Z,16.32
2017-08-26T04:40:18.213Z,16.5
2017-08-26T04:40:58.780Z,16.41
2017-08-26T04:41:39.366Z,16.47
2017-08-26T04:42:19.958Z,16.5
2017-08-26T04:43:00.555Z,16.46
2017-08-26T04:43:41.109Z,16.51
2017-08-26T04:44:21.696Z,16.53
2017-08-26T04:45:02.299Z,16.54
2017-08-26T04:45:42.890Z,16.5
2017-08-26T04:46:23.482Z,16.47
2017-08-26T04:47:04.049Z,16.53
2017-08-26T04:47:44.609Z,16.61
2017-08-26T04:48:25.174Z,16.56
2017-08-26T04:49:05.791Z,16.53
2017-08-26T04:49:46.379Z,16.51
2017-08-26T04:50:26.968Z,16.6
2017-08-26T04:51:07.539Z,16.53
2017-08-26T04:51:48.134Z,16.53
2017-08-26T04:52:28.684Z,16.57
2017-08-26T04:53:09.252Z,16.53
2017-08-26T04:53:49.825Z,16.54
2017-08-26T04:54:30.388Z,16.54
2017-08-26T04:55:10.988Z,16.57
2017-08-26T04:55:51.568Z,16.53
2017-08-26T04:56:32.143Z,16.54
2017-08-26T04:57:12.750Z,16.58
2017-08-26T04:57:53.324Z,16.69
2017-08-26T04:58:33.902Z,16.64
2017-08-26T04:59:14.497Z,16.61
2017-08-26T04:59:55.071Z,16.6
2017-08-26T05:00:35.697Z,16.61
2017-08-26T05:01:16.271Z,16.64
2017-08-26T05:01:56.856Z,16.66
2017-08-26T05:02:37.435Z,16.68
2017-08-26T05:03:18.008Z,16.69
2017-08-26T05:03:58.629Z,16.61
2017-08-26T05:04:39.203Z,16.69
2017-08-26T05:05:19.790Z,16.65
2017-08-26T05:06:00.378Z,16.65
2017-08-26T05:06:40.962Z,16.69
2017-08-26T05:07:21.541Z,16.74
2017-08-26T05:08:02.127Z,16.72
2017-08-26T05:08:42.713Z,16.83
2017-08-26T05:09:23.269Z,16.72
2017-08-26T05:10:03.839Z,16.76
2017-08-26T05:10:44.413Z,16.79
2017-08-26T05:11:24.988Z,16.74
2017-08-26T05:12:05.569Z,16.79
2017-08-26T05:12:46.132Z,16.79
2017-08-26T05:13:26.694Z,16.76
2017-08-26T05:14:07.252Z,16.79
2017-08-26T05:14:47.818Z,16.86
2017-08-26T05:15:28.388Z,16.86
2017-08-26T05:16:08.984Z,16.84
2017-08-26T05:16:49.553Z,16.83
2017-08-26T05:17:30.137Z,16.89
2017-08-26T05:18:10.721Z,16.84
2017-08-26T05:18:51.286Z,16.94
2017-08-26T05:19:31.870Z,16.81
2017-08-26T05:20:12.456Z,16.86
2017-08-26T05:20:53.024Z,16.96
2017-08-26T05:21:33.603Z,16.91
2017-08-26T05:22:14.169Z,16.93
2017-08-26T05:22:54.742Z,16.96
2017-08-26T05:23:35.321Z,16.9
2017-08-26T05:24:15.945Z,16.91
2017-08-26T05:24:56.524Z,16.96
2017-08-26T05:25:37.135Z,16.93
2017-08-26T05:26:17.718Z,16.96
2017-08-26T05:26:58.300Z,16.99
2017-08-26T05:27:38.878Z,17.01
2017-08-26T05:28:19.457Z,17.01
2017-08-26T05:29:00.040Z,17.04
2017-08-26T05:29:40.629Z,17.02
2017-08-26T05:30:21.240Z,17.02
2017-08-26T05:31:01.850Z,16.99
2017-08-26T05:31:42.414Z,17.01
2017-08-26T05:32:23.005Z,17.04
2017-08-26T05:33:03.577Z,17.08
2017-08-26T05:33:44.170Z,17.01
2017-08-26T05:34:24.780Z,17.04
2017-08-26T05:35:05.362Z,17.02
2017-08-26T05:35:45.931Z,17.05
2017-08-26T05:36:26.501Z,17.05
2017-08-26T05:37:07.089Z,17.05
2017-08-26T05:37:47.671Z,17.11
2017-08-26T05:38:28.259Z,17.04
2017-08-26T05:39:08.831Z,17.09
2017-08-26T05:39:49.399Z,17.05
2017-08-26T05:40:29.994Z,17.14
2017-08-26T05:41:10.577Z,17.05
2017-08-26T05:41:51.140Z,17.04
2017-08-26T05:42:31.713Z,17.04
2017-08-26T05:43:12.285Z,17.12
2017-08-26T05:43:52.879Z,17.06
2017-08-26T05:44:33.444Z,17.11
2017-08-26T05:45:14.046Z,17.14
2017-08-26T05:45:54.635Z,17.14
2017-08-26T05:46:35.211Z,17.12
2017-08-26T05:47:15.794Z,17.22
2017-08-26T05:47:56.380Z,17.08
2017-08-26T05:48:36.968Z,17.23
2017-08-26T05:49:17.563Z,17.2
2017-08-26T05:49:58.138Z,17.16
2017-08-26T05:50:38.723Z,17.16
2017-08-26T05:51:19.309Z,17.16
2017-08-26T05:51:59.889Z,17.16
2017-08-26T05:52:40.455Z,17.2
2017-08-26T05:53:21.026Z,17.26
2017-08-26T05:54:01.604Z,17.26
2017-08-26T05:54:42.176Z,17.31
2017-08-26T05:55:22.766Z,17.36
2017-08-26T05:56:03.329Z,17.39
2017-08-26T05:56:43.903Z,17.31
2017-08-26T05:57:24.490Z,17.39
2017-08-26T05:58:05.064Z,17.39
2017-08-26T05:58:45.630Z,17.33
2017-08-26T05:59:26.243Z,17.34
2017-08-26T06:00:06.836Z,17.36
2017-08-26T06:00:47.426Z,17.36
2017-08-26T06:01:27.996Z,17.39
2017-08-26T06:02:08.562Z,17.49
2017-08-26T06:02:49.152Z,17.44
2017-08-26T06:03:29.728Z,17.45
2017-08-26T06:04:10.311Z,17.44
2017-08-26T06:04:50.874Z,17.54
2017-08-26T06:05:31.452Z,17.51
2017-08-26T06:06:12.030Z,17.45
2017-08-26T06:06:52.630Z,17.57
2017-08-26T06:07:33.200Z,17.6
2017-08-26T06:08:13.792Z,17.64
2017-08-26T06:08:54.370Z,17.64
2017-08-26T06:09:34.949Z,17.56
2017-08-26T06:10:15.535Z,17.56
2017-08-26T06:10:56.114Z,17.63
2017-08-26T06:11:36.679Z,17.6
2017-08-26T06:12:17.254Z,17.68
2017-08-26T06:12:57.835Z,17.7
2017-08-26T06:13:38.421Z,17.7
2017-08-26T06:14:18.978Z,17.71
2017-08-26T06:14:59.554Z,17.71
2017-08-26T06:15:40.126Z,17.72
2017-08-26T06:16:20.682Z,17.78
2017-08-26T06:17:01.270Z,17.72
2017-08-26T06:17:41.864Z,17.76
2017-08-26T06:18:22.442Z,17.74
2017-08-26T06:19:03.015Z,17.83
2017-08-26T06:19:43.582Z,17.85
2017-08-26T06:20:24.160Z,17.87
2017-08-26T06:21:04.743Z,17.85
2017-08-26T06:21:45.324Z,17.86
2017-08-26T06:22:25.909Z,17.97
2017-08-26T06:23:06.503Z,17.95
2017-08-26T06:23:47.077Z,18.03
2017-08-26T06:24:27.648Z,18.05
2017-08-26T06:25:08.224Z,18.08
2017-08-26T06:25:48.804Z,18.22
2017-08-26T06:26:29.401Z,18.25
2017-08-26T06:27:09.983Z,18.26
2017-08-26T06:27:50.567Z,18.31
2017-08-26T06:28:31.165Z,18.45
2017-08-26T06:29:11.735Z,18.41
2017-08-26T06:29:52.299Z,18.38
2017-08-26T06:30:32.885Z,18.53
2017-08-26T06:31:13.452Z,18.6
2017-08-26T06:31:54.039Z,18.68
2017-08-26T06:32:34.627Z,18.77
2017-08-26T06:33:15.224Z,18.89
2017-08-26T06:33:55.819Z,18.99
2017-08-26T06:34:36.404Z,19.04
2017-08-26T06:35:16.994Z,19
2017-08-26T06:35:57.571Z,19.16
2017-08-26T06:36:38.153Z,19.22
2017-08-26T06:37:18.761Z,19.26
2017-08-26T06:37:59.334Z,19.22
2017-08-26T06:38:39.918Z,19.29
2017-08-26T06:39:20.508Z,19.34
2017-08-26T06:40:01.090Z,19.33
2017-08-26T06:40:41.675Z,19.49
2017-08-26T06:41:22.252Z,19.52
2017-08-26T06:42:02.835Z,19.59
2017-08-26T06:42:43.403Z,19.63
2017-08-26T06:43:23.971Z,19.76
2017-08-26T06:44:04.593Z,19.85
2017-08-26T06:44:45.142Z,19.92
2017-08-26T06:45:25.730Z,20.04
2017-08-26T06:46:06.308Z,19.94
2017-08-26T06:46:46.886Z,20.03
2017-08-26T06:47:27.498Z,20.13
2017-08-26T06:48:08.064Z,20.39
2017-08-26T06:48:48.657Z,20.37
2017-08-26T06:49:29.249Z,20.43
2017-08-26T06:50:09.861Z,20.4
2017-08-26T06:50:50.457Z,20.58
2017-08-26T06:51:31.031Z,20.66
2017-08-26T06:52:11.626Z,20.82
2017-08-26T06:52:52.198Z,20.84
2017-08-26T06:53:32.793Z,20.81
2017-08-26T06:54:13.413Z,20.9
2017-08-26T06:54:54.027Z,20.92
2017-08-26T06:55:34.621Z,20.92
2017-08-26T06:56:15.174Z,20.75
2017-08-26T06:56:55.763Z,20.74
2017-08-26T06:57:36.348Z,20.59
2017-08-26T06:58:16.922Z,20.48
2017-08-26T06:58:57.518Z,20.5
2017-08-26T06:59:38.101Z,20.51
2017-08-26T07:00:18.671Z,20.48
2017-08-26T07:00:59.246Z,20.5
2017-08-26T07:01:39.835Z,20.37
2017-08-26T07:02:20.414Z,20.36
2017-08-26T07:03:01.013Z,20.4
2017-08-26T07:03:41.580Z,20.41
2017-08-26T07:04:22.156Z,20.32
2017-08-26T07:05:02.755Z,20.4
2017-08-26T07:05:43.342Z,20.37
2017-08-26T07:06:23.919Z,20.43
2017-08-26T07:07:04.502Z,20.31
2017-08-26T07:07:45.080Z,20.39
2017-08-26T07:08:25.669Z,20.1
2017-08-26T07:09:06.269Z,20.18
2017-08-26T07:09:46.848Z,20.1
2017-08-26T07:10:27.436Z,20.02
2017-08-26T07:11:08.062Z,20.07
2017-08-26T07:11:48.647Z,19.99
2017-08-26T07:12:29.223Z,20.03
2017-08-26T07:13:09.785Z,19.95
2017-08-26T07:13:50.385Z,19.84
2017-08-26T07:14:30.949Z,19.92
2017-08-26T07:15:11.522Z,19.85
2017-08-26T07:15:52.097Z,19.82
2017-08-26T07:16:32.679Z,19.86
2017-08-26T07:17:13.252Z,19.76
2017-08-26T07:17:53.826Z,19.74
2017-08-26T07:18:34.405Z,19.76
2017-08-26T07:19:14.989Z,19.64
2017-08-26T07:19:55.575Z,19.69
2017-08-26T07:20:36.186Z,19.66
2017-08-26T07:21:16.749Z,19.64
2017-08-26T07:21:57.349Z,19.55
2017-08-26T07:22:37.956Z,19.56
2017-08-26T07:23:18.535Z,19.62
2017-08-26T07:23:59.122Z,19.58
2017-08-26T07:24:39.692Z,19.52
2017-08-26T07:25:20.267Z,19.62
2017-08-26T07:26:00.868Z,19.49
2017-08-26T07:26:41.458Z,19.51
2017-08-26T07:27:22.040Z,19.55
2017-08-26T07:28:02.632Z,19.66
2017-08-26T07:28:43.228Z,19.52
2017-08-26T07:29:23.802Z,19.63
2017-08-26T07:30:04.441Z,19.55
2017-08-26T07:30:45.034Z,19.67
2017-08-26T07:31:25.618Z,19.69
2017-08-26T07:32:06.296Z,19.58
2017-08-26T07:32:46.880Z,19.74
2017-08-26T07:33:27.467Z,19.77
2017-08-26T07:34:08.047Z,19.76
2017-08-26T07:34:48.635Z,19.88
2017-08-26T07:35:29.270Z,19.88
2017-08-26T07:36:09.859Z,19.86
2017-08-26T07:36:50.447Z,19.99
2017-08-26T07:37:31.073Z,20.03
2017-08-26T07:38:11.657Z,20.1
2017-08-26T07:38:52.240Z,20.14
2017-08-26T07:39:32.855Z,20.18
2017-08-26T07:40:13.427Z,20.22
2017-08-26T07:40:54.010Z,20.19
2017-08-26T07:41:34.590Z,20.34
2017-08-26T07:42:15.177Z,20.25
2017-08-26T07:42:55.758Z,20.31
2017-08-26T07:43:36.328Z,20.26
2017-08-26T07:44:16.979Z,20.4
2017-08-26T07:44:57.549Z,20.36
2017-08-26T07:45:38.125Z,20.26
2017-08-26T07:46:18.732Z,20.32
2017-08-26T07:46:59.328Z,20.32
2017-08-26T07:47:39.910Z,20.31
2017-08-26T07:48:20.511Z,20.36
2017-08-26T07:49:01.095Z,20.4
2017-08-26T07:49:41.677Z,20.25
2017-08-26T07:50:22.251Z,20.26
2017-08-26T07:51:02.826Z,20.26
2017-08-26T07:51:43.414Z,20.24
2017-08-26T07:52:23.992Z,20.31
2017-08-26T07:53:04.562Z,20.28
2017-08-26T07:53:45.153Z,20.31
2017-08-26T07:54:25.743Z,20.34
2017-08-26T07:55:06.323Z,20.28
2017-08-26T07:55:46.900Z,20.31
2017-08-26T07:56:27.470Z,20.26
2017-08-26T07:57:08.054Z,20.31
2017-08-26T07:57:48.630Z,20.31
2017-08-26T07:58:29.214Z,20.22
2017-08-26T07:59:09.773Z,20.39
2017-08-26T07:59:50.365Z,20.28
2017-08-26T08:00:30.931Z,20.37
2017-08-26T08:01:11.524Z,20.25
2017-08-26T08:01:52.119Z,20.19
2017-08-26T08:02:32.709Z,20.14
2017-08-26T08:03:13.293Z,20.21
2017-08-26T08:03:53.884Z,20.22
2017-08-26T08:04:34.465Z,20.13
2017-08-26T08:05:15.052Z,20.13
2017-08-26T08:05:55.624Z,20.11
2017-08-26T08:06:36.205Z,20.03
2017-08-26T08:07:16.770Z,20.02
2017-08-26T08:07:57.337Z,20.02
2017-08-26T08:08:37.901Z,19.86
2017-08-26T08:09:18.492Z,19.99
2017-08-26T08:09:59.067Z,19.92
2017-08-26T08:10:39.640Z,20
2017-08-26T08:11:20.255Z,19.86
2017-08-26T08:12:00.859Z,19.95
2017-08-26T08:12:41.474Z,19.84
2017-08-26T08:13:22.051Z,19.89
2017-08-26T08:14:02.627Z,19.89
2017-08-26T08:14:43.199Z,19.91
2017-08-26T08:15:23.833Z,19.92
2017-08-26T08:16:04.409Z,19.91
2017-08-26T08:16:44.990Z,19.86
2017-08-26T08:17:25.569Z,19.89
2017-08-26T08:18:06.163Z,19.92
2017-08-26T08:18:46.742Z,19.89
2017-08-26T08:19:27.323Z,19.91
2017-08-26T08:20:07.896Z,19.84
2017-08-26T08:20:48.486Z,19.85
2017-08-26T08:21:29.072Z,19.92
2017-08-26T08:22:09.667Z,19.91
2017-08-26T08:22:50.259Z,19.82
2017-08-26T08:23:30.845Z,19.91
2017-08-26T08:24:11.450Z,19.84
2017-08-26T08:24:52.012Z,19.92
2017-08-26T08:25:32.591Z,19.85
2017-08-26T08:26:13.173Z,19.85
2017-08-26T08:26:53.792Z,19.73
2017-08-26T08:27:34.375Z,19.85
2017-08-26T08:28:14.956Z,19.85
2017-08-26T08:28:55.526Z,19.85
2017-08-26T08:29:36.105Z,19.84
2017-08-26T08:30:16.678Z,19.82
2017-08-26T08:30:57.269Z,19.81
2017-08-26T08:31:37.883Z,19.79
2017-08-26T08:32:18.484Z,19.82
2017-08-26T08:32:59.060Z,19.76
2017-08-26T08:33:39.639Z,19.81
2017-08-26T08:34:20.224Z,19.84
2017-08-26T08:35:00.818Z,19.76
2017-08-26T08:35:41.391Z,19.79
2017-08-26T08:36:21.956Z,19.85
2017-08-26T08:37:02.535Z,19.81
2017-08-26T08:37:43.107Z,19.71
2017-08-26T08:38:23.676Z,19.85
2017-08-26T08:39:04.250Z,19.84
2017-08-26T08:39:44.830Z,19.76
2017-08-26T08:40:25.427Z,19.88
2017-08-26T08:41:05.980Z,19.86
2017-08-26T08:41:46.549Z,19.88
2017-08-26T08:42:27.141Z,19.85
2017-08-26T08:43:07.713Z,19.86
2017-08-26T08:43:48.283Z,19.92